sensor_id;sensor_type;location;lat;lon;timestamp;temperature;humidity
20946;DHT22;10632;51.276;7.116;2024-02-26T00:01:49;5.10;99.90
20946;DHT22;10632;51.276;7.116;2024-02-26T00:04:16;5.10;99.90
20946;DHT22;10632;51.276;7.116;2024-02-26T00:06:43;5.10;99.90
20946;DHT22;10632;51.276;7.116;2024-02-26T00:09:10;5.10;99.90
20946;DHT22;10632;51.276;7.116;2024-02-26T00:11:37;5.10;99.90
20946;DHT22;10632;51.276;7.116;2024-02-26T00:14:04;5.10;99.90
20946;DHT22;10632;51.276;7.116;2024-02-26T00:16:34;5.10;99.90
20946;DHT22;10632;51.276;7.116;2024-02-26T00:19:04;5.20;99.90
20946;DHT22;10632;51.276;7.116;2024-02-26T00:21:31;5.10;99.90
20946;DHT22;10632;51.276;7.116;2024-02-26T00:23:58;5.20;99.90
20946;DHT22;10632;51.276;7.116;2024-02-26T00:26:25;5.20;99.90
20946;DHT22;10632;51.276;7.116;2024-02-26T00:28:52;5.20;99.90
20946;DHT22;10632;51.276;7.116;2024-02-26T00:31:18;5.30;99.90
20946;DHT22;10632;51.276;7.116;2024-02-26T00:33:47;5.30;99.90
20946;DHT22;10632;51.276;7.116;2024-02-26T00:36:14;5.30;99.90
20946;DHT22;10632;51.276;7.116;2024-02-26T00:38:41;5.30;99.90
20946;DHT22;10632;51.276;7.116;2024-02-26T00:41:08;5.30;99.90
20946;DHT22;10632;51.276;7.116;2024-02-26T00:43:35;5.40;99.90
20946;DHT22;10632;51.276;7.116;2024-02-26T00:46:03;5.30;99.90
20946;DHT22;10632;51.276;7.116;2024-02-26T00:48:30;5.40;99.90
20946;DHT22;10632;51.276;7.116;2024-02-26T00:50:58;5.30;99.90
20946;DHT22;10632;51.276;7.116;2024-02-26T00:53:25;5.30;99.90
20946;DHT22;10632;51.276;7.116;2024-02-26T00:55:52;5.30;99.90
20946;DHT22;10632;51.276;7.116;2024-02-26T00:58:19;5.30;99.90
20946;DHT22;10632;51.276;7.116;2024-02-26T01:00:51;5.30;99.90
20946;DHT22;10632;51.276;7.116;2024-02-26T01:03:18;5.20;99.90
20946;DHT22;10632;51.276;7.116;2024-02-26T01:05:46;5.20;99.90
20946;DHT22;10632;51.276;7.116;2024-02-26T01:08:14;5.20;99.90
20946;DHT22;10632;51.276;7.116;2024-02-26T01:10:41;5.20;99.90
20946;DHT22;10632;51.276;7.116;2024-02-26T01:13:08;5.10;99.90
20946;DHT22;10632;51.276;7.116;2024-02-26T01:15:35;5.10;99.90
20946;DHT22;10632;51.276;7.116;2024-02-26T01:18:02;5.10;99.90
20946;DHT22;10632;51.276;7.116;2024-02-26T01:20:29;5.10;99.90
20946;DHT22;10632;51.276;7.116;2024-02-26T01:22:55;5.10;99.90
20946;DHT22;10632;51.276;7.116;2024-02-26T01:25:24;5.00;99.90
20946;DHT22;10632;51.276;7.116;2024-02-26T01:27:50;5.00;99.90
20946;DHT22;10632;51.276;7.116;2024-02-26T01:30:23;5.00;99.90
20946;DHT22;10632;51.276;7.116;2024-02-26T01:32:50;5.00;99.90
20946;DHT22;10632;51.276;7.116;2024-02-26T01:35:19;5.00;99.90
20946;DHT22;10632;51.276;7.116;2024-02-26T01:37:46;5.00;99.90
20946;DHT22;10632;51.276;7.116;2024-02-26T01:40:13;4.90;99.90
20946;DHT22;10632;51.276;7.116;2024-02-26T01:42:44;4.90;99.90
20946;DHT22;10632;51.276;7.116;2024-02-26T01:45:15;4.90;99.90
20946;DHT22;10632;51.276;7.116;2024-02-26T01:47:48;4.90;99.90
20946;DHT22;10632;51.276;7.116;2024-02-26T01:50:16;4.90;99.90
20946;DHT22;10632;51.276;7.116;2024-02-26T01:52:44;4.90;99.90
20946;DHT22;10632;51.276;7.116;2024-02-26T01:55:13;4.90;99.90
20946;DHT22;10632;51.276;7.116;2024-02-26T01:57:41;4.90;99.90
20946;DHT22;10632;51.276;7.116;2024-02-26T02:00:11;4.90;99.90
20946;DHT22;10632;51.276;7.116;2024-02-26T02:02:39;4.90;99.90
20946;DHT22;10632;51.276;7.116;2024-02-26T02:05:08;4.90;99.90
20946;DHT22;10632;51.276;7.116;2024-02-26T02:07:36;4.80;99.90
20946;DHT22;10632;51.276;7.116;2024-02-26T02:10:04;4.80;99.90
20946;DHT22;10632;51.276;7.116;2024-02-26T02:12:32;4.90;99.90
20946;DHT22;10632;51.276;7.116;2024-02-26T02:15:00;4.80;99.90
20946;DHT22;10632;51.276;7.116;2024-02-26T02:17:28;4.90;99.90
20946;DHT22;10632;51.276;7.116;2024-02-26T02:19:55;4.90;99.90
20946;DHT22;10632;51.276;7.116;2024-02-26T02:22:24;4.80;99.90
20946;DHT22;10632;51.276;7.116;2024-02-26T02:24:52;4.90;99.90
20946;DHT22;10632;51.276;7.116;2024-02-26T02:27:19;4.90;99.90
20946;DHT22;10632;51.276;7.116;2024-02-26T02:29:47;4.80;99.90
20946;DHT22;10632;51.276;7.116;2024-02-26T02:32:15;4.80;99.90
20946;DHT22;10632;51.276;7.116;2024-02-26T02:34:43;4.80;99.90
20946;DHT22;10632;51.276;7.116;2024-02-26T02:37:10;4.80;99.90
20946;DHT22;10632;51.276;7.116;2024-02-26T02:39:38;4.70;99.90
20946;DHT22;10632;51.276;7.116;2024-02-26T02:42:07;4.70;99.90
20946;DHT22;10632;51.276;7.116;2024-02-26T02:44:34;4.70;99.90
20946;DHT22;10632;51.276;7.116;2024-02-26T02:47:00;4.60;99.90
20946;DHT22;10632;51.276;7.116;2024-02-26T02:49:27;4.60;99.90
20946;DHT22;10632;51.276;7.116;2024-02-26T02:51:54;4.60;99.90
20946;DHT22;10632;51.276;7.116;2024-02-26T02:54:23;4.50;99.90
20946;DHT22;10632;51.276;7.116;2024-02-26T02:56:51;4.50;99.90
20946;DHT22;10632;51.276;7.116;2024-02-26T02:59:18;4.50;99.90
20946;DHT22;10632;51.276;7.116;2024-02-26T03:01:44;4.40;99.90
20946;DHT22;10632;51.276;7.116;2024-02-26T03:04:12;4.40;99.90
20946;DHT22;10632;51.276;7.116;2024-02-26T03:06:39;4.40;99.90
20946;DHT22;10632;51.276;7.116;2024-02-26T03:09:06;4.40;99.90
20946;DHT22;10632;51.276;7.116;2024-02-26T03:11:33;4.40;99.90
20946;DHT22;10632;51.276;7.116;2024-02-26T03:14:01;4.40;99.90
20946;DHT22;10632;51.276;7.116;2024-02-26T03:16:28;4.40;99.90
20946;DHT22;10632;51.276;7.116;2024-02-26T03:18:55;4.30;99.90
20946;DHT22;10632;51.276;7.116;2024-02-26T03:21:22;4.30;99.90
20946;DHT22;10632;51.276;7.116;2024-02-26T03:23:49;4.30;99.90
20946;DHT22;10632;51.276;7.116;2024-02-26T03:26:16;4.30;99.90
20946;DHT22;10632;51.276;7.116;2024-02-26T03:28:43;4.30;99.90
20946;DHT22;10632;51.276;7.116;2024-02-26T03:31:11;4.30;99.90
20946;DHT22;10632;51.276;7.116;2024-02-26T03:33:38;4.30;99.90
20946;DHT22;10632;51.276;7.116;2024-02-26T03:36:05;4.30;99.90
20946;DHT22;10632;51.276;7.116;2024-02-26T03:38:33;4.30;99.90
20946;DHT22;10632;51.276;7.116;2024-02-26T03:41:00;4.30;99.90
20946;DHT22;10632;51.276;7.116;2024-02-26T03:43:26;4.20;99.90
20946;DHT22;10632;51.276;7.116;2024-02-26T03:45:53;4.20;99.90
20946;DHT22;10632;51.276;7.116;2024-02-26T03:48:22;4.20;99.90
20946;DHT22;10632;51.276;7.116;2024-02-26T03:50:48;4.20;99.90
20946;DHT22;10632;51.276;7.116;2024-02-26T03:53:15;4.20;99.90
20946;DHT22;10632;51.276;7.116;2024-02-26T03:55:42;4.20;99.90
20946;DHT22;10632;51.276;7.116;2024-02-26T03:58:09;4.10;99.90
20946;DHT22;10632;51.276;7.116;2024-02-26T04:00:40;4.10;99.90
20946;DHT22;10632;51.276;7.116;2024-02-26T04:03:13;4.10;99.90
20946;DHT22;10632;51.276;7.116;2024-02-26T04:05:41;4.10;99.90
20946;DHT22;10632;51.276;7.116;2024-02-26T04:08:08;4.10;99.90
20946;DHT22;10632;51.276;7.116;2024-02-26T04:10:36;4.00;99.90
20946;DHT22;10632;51.276;7.116;2024-02-26T04:13:04;4.10;99.90
20946;DHT22;10632;51.276;7.116;2024-02-26T04:15:31;4.10;99.90
20946;DHT22;10632;51.276;7.116;2024-02-26T04:17:58;4.00;99.90
20946;DHT22;10632;51.276;7.116;2024-02-26T04:20:25;4.10;99.90
20946;DHT22;10632;51.276;7.116;2024-02-26T04:22:53;4.10;99.90
20946;DHT22;10632;51.276;7.116;2024-02-26T04:25:20;4.10;99.90
20946;DHT22;10632;51.276;7.116;2024-02-26T04:27:47;4.10;99.90
20946;DHT22;10632;51.276;7.116;2024-02-26T04:30:14;4.10;99.90
20946;DHT22;10632;51.276;7.116;2024-02-26T04:32:42;4.10;99.90
20946;DHT22;10632;51.276;7.116;2024-02-26T04:35:10;4.10;99.90
20946;DHT22;10632;51.276;7.116;2024-02-26T04:37:37;4.00;99.90
20946;DHT22;10632;51.276;7.116;2024-02-26T04:40:06;4.00;99.90
20946;DHT22;10632;51.276;7.116;2024-02-26T04:42:35;4.00;99.90
20946;DHT22;10632;51.276;7.116;2024-02-26T04:45:02;4.00;99.90
20946;DHT22;10632;51.276;7.116;2024-02-26T04:47:29;4.00;99.90
20946;DHT22;10632;51.276;7.116;2024-02-26T04:49:56;4.00;99.90
20946;DHT22;10632;51.276;7.116;2024-02-26T04:52:23;4.00;99.90
20946;DHT22;10632;51.276;7.116;2024-02-26T04:54:50;4.00;99.90
20946;DHT22;10632;51.276;7.116;2024-02-26T04:57:18;3.90;99.90
20946;DHT22;10632;51.276;7.116;2024-02-26T04:59:45;3.90;99.90
20946;DHT22;10632;51.276;7.116;2024-02-26T05:02:12;3.90;99.90
20946;DHT22;10632;51.276;7.116;2024-02-26T05:04:39;3.90;99.90
20946;DHT22;10632;51.276;7.116;2024-02-26T05:07:08;3.90;99.90
20946;DHT22;10632;51.276;7.116;2024-02-26T05:09:35;3.90;99.90
20946;DHT22;10632;51.276;7.116;2024-02-26T05:12:02;3.90;99.90
20946;DHT22;10632;51.276;7.116;2024-02-26T05:14:31;3.90;99.90
20946;DHT22;10632;51.276;7.116;2024-02-26T05:16:57;3.90;99.90
20946;DHT22;10632;51.276;7.116;2024-02-26T05:19:24;3.90;99.90
20946;DHT22;10632;51.276;7.116;2024-02-26T05:21:51;3.90;99.90
20946;DHT22;10632;51.276;7.116;2024-02-26T05:24:18;3.90;99.90
20946;DHT22;10632;51.276;7.116;2024-02-26T05:26:53;3.90;99.90
20946;DHT22;10632;51.276;7.116;2024-02-26T05:29:24;3.90;99.90
20946;DHT22;10632;51.276;7.116;2024-02-26T05:31:52;3.90;99.90
20946;DHT22;10632;51.276;7.116;2024-02-26T05:34:20;3.90;99.90
20946;DHT22;10632;51.276;7.116;2024-02-26T05:36:47;3.90;99.90
20946;DHT22;10632;51.276;7.116;2024-02-26T05:39:14;3.90;99.90
20946;DHT22;10632;51.276;7.116;2024-02-26T05:41:41;3.90;99.90
20946;DHT22;10632;51.276;7.116;2024-02-26T05:44:08;3.80;99.90
20946;DHT22;10632;51.276;7.116;2024-02-26T05:46:36;3.90;99.90
20946;DHT22;10632;51.276;7.116;2024-02-26T05:49:04;3.90;99.90
20946;DHT22;10632;51.276;7.116;2024-02-26T05:51:32;3.80;99.90
20946;DHT22;10632;51.276;7.116;2024-02-26T05:53:59;3.80;99.90
20946;DHT22;10632;51.276;7.116;2024-02-26T05:56:26;3.80;99.90
20946;DHT22;10632;51.276;7.116;2024-02-26T05:58:53;3.80;99.90
20946;DHT22;10632;51.276;7.116;2024-02-26T06:01:23;3.80;99.90
20946;DHT22;10632;51.276;7.116;2024-02-26T06:03:51;3.80;99.90
20946;DHT22;10632;51.276;7.116;2024-02-26T06:06:19;3.80;99.90
20946;DHT22;10632;51.276;7.116;2024-02-26T06:08:48;3.80;99.90
20946;DHT22;10632;51.276;7.116;2024-02-26T06:11:15;3.80;99.90
20946;DHT22;10632;51.276;7.116;2024-02-26T06:13:42;3.80;99.90
20946;DHT22;10632;51.276;7.116;2024-02-26T06:16:09;3.80;99.90
20946;DHT22;10632;51.276;7.116;2024-02-26T06:18:36;3.80;99.90
20946;DHT22;10632;51.276;7.116;2024-02-26T06:21:03;3.80;99.90
20946;DHT22;10632;51.276;7.116;2024-02-26T06:23:31;3.80;99.90
20946;DHT22;10632;51.276;7.116;2024-02-26T06:25:58;3.80;99.90
20946;DHT22;10632;51.276;7.116;2024-02-26T06:28:25;3.70;99.90
20946;DHT22;10632;51.276;7.116;2024-02-26T06:30:52;3.70;99.90
20946;DHT22;10632;51.276;7.116;2024-02-26T06:33:19;3.70;99.90
20946;DHT22;10632;51.276;7.116;2024-02-26T06:35:45;3.70;99.90
20946;DHT22;10632;51.276;7.116;2024-02-26T06:38:12;3.70;99.90
20946;DHT22;10632;51.276;7.116;2024-02-26T06:40:41;3.70;99.90
20946;DHT22;10632;51.276;7.116;2024-02-26T06:43:07;3.70;99.90
20946;DHT22;10632;51.276;7.116;2024-02-26T06:45:34;3.70;99.90
20946;DHT22;10632;51.276;7.116;2024-02-26T06:48:01;3.70;99.90
20946;DHT22;10632;51.276;7.116;2024-02-26T06:50:29;3.70;99.90
20946;DHT22;10632;51.276;7.116;2024-02-26T06:52:56;3.70;99.90
20946;DHT22;10632;51.276;7.116;2024-02-26T06:55:22;3.70;99.90
20946;DHT22;10632;51.276;7.116;2024-02-26T06:57:50;3.70;99.90
20946;DHT22;10632;51.276;7.116;2024-02-26T07:00:18;3.70;99.90
20946;DHT22;10632;51.276;7.116;2024-02-26T07:02:45;3.60;99.90
20946;DHT22;10632;51.276;7.116;2024-02-26T07:05:12;3.70;99.90
20946;DHT22;10632;51.276;7.116;2024-02-26T07:07:39;3.70;99.90
20946;DHT22;10632;51.276;7.116;2024-02-26T07:10:06;3.70;99.90
20946;DHT22;10632;51.276;7.116;2024-02-26T07:12:33;3.70;99.90
20946;DHT22;10632;51.276;7.116;2024-02-26T07:15:05;3.70;99.90
20946;DHT22;10632;51.276;7.116;2024-02-26T07:17:33;3.80;99.90
20946;DHT22;10632;51.276;7.116;2024-02-26T07:20:00;3.70;99.90
20946;DHT22;10632;51.276;7.116;2024-02-26T07:22:30;3.80;99.90
20946;DHT22;10632;51.276;7.116;2024-02-26T07:24:56;3.80;99.90
20946;DHT22;10632;51.276;7.116;2024-02-26T07:27:23;3.80;99.90
20946;DHT22;10632;51.276;7.116;2024-02-26T07:29:50;3.80;99.90
20946;DHT22;10632;51.276;7.116;2024-02-26T07:32:18;3.80;99.90
20946;DHT22;10632;51.276;7.116;2024-02-26T07:34:45;3.80;99.90
20946;DHT22;10632;51.276;7.116;2024-02-26T07:37:12;3.90;99.90
20946;DHT22;10632;51.276;7.116;2024-02-26T07:39:39;3.80;99.90
20946;DHT22;10632;51.276;7.116;2024-02-26T07:42:06;3.80;99.90
20946;DHT22;10632;51.276;7.116;2024-02-26T07:44:33;3.90;99.90
20946;DHT22;10632;51.276;7.116;2024-02-26T07:47:00;3.90;99.90
20946;DHT22;10632;51.276;7.116;2024-02-26T07:49:28;3.90;99.90
20946;DHT22;10632;51.276;7.116;2024-02-26T07:51:55;3.90;99.90
20946;DHT22;10632;51.276;7.116;2024-02-26T07:54:23;3.90;99.90
20946;DHT22;10632;51.276;7.116;2024-02-26T07:56:50;3.90;99.90
20946;DHT22;10632;51.276;7.116;2024-02-26T07:59:17;3.90;99.90
20946;DHT22;10632;51.276;7.116;2024-02-26T08:01:44;4.00;99.90
20946;DHT22;10632;51.276;7.116;2024-02-26T08:04:20;4.00;99.90
20946;DHT22;10632;51.276;7.116;2024-02-26T08:06:48;4.00;99.90
20946;DHT22;10632;51.276;7.116;2024-02-26T08:09:15;4.00;99.90
20946;DHT22;10632;51.276;7.116;2024-02-26T08:11:44;4.00;99.90
20946;DHT22;10632;51.276;7.116;2024-02-26T08:14:11;4.10;99.90
20946;DHT22;10632;51.276;7.116;2024-02-26T08:16:40;4.10;99.90
20946;DHT22;10632;51.276;7.116;2024-02-26T08:19:07;4.10;99.90
20946;DHT22;10632;51.276;7.116;2024-02-26T08:21:35;4.10;99.90
20946;DHT22;10632;51.276;7.116;2024-02-26T08:24:05;4.10;99.90
20946;DHT22;10632;51.276;7.116;2024-02-26T08:26:31;4.10;99.90
20946;DHT22;10632;51.276;7.116;2024-02-26T08:28:58;4.10;99.90
20946;DHT22;10632;51.276;7.116;2024-02-26T08:31:25;4.20;99.90
20946;DHT22;10632;51.276;7.116;2024-02-26T08:33:53;4.20;99.90
20946;DHT22;10632;51.276;7.116;2024-02-26T08:36:20;4.20;99.90
20946;DHT22;10632;51.276;7.116;2024-02-26T08:38:46;4.20;99.90
20946;DHT22;10632;51.276;7.116;2024-02-26T08:41:15;4.20;99.90
20946;DHT22;10632;51.276;7.116;2024-02-26T08:43:42;4.20;99.90
20946;DHT22;10632;51.276;7.116;2024-02-26T08:46:09;4.20;99.90
20946;DHT22;10632;51.276;7.116;2024-02-26T08:48:36;4.30;99.90
20946;DHT22;10632;51.276;7.116;2024-02-26T08:51:05;4.30;99.90
20946;DHT22;10632;51.276;7.116;2024-02-26T08:53:33;4.30;99.90
20946;DHT22;10632;51.276;7.116;2024-02-26T08:56:00;4.30;99.90
20946;DHT22;10632;51.276;7.116;2024-02-26T08:58:34;4.30;99.90
20946;DHT22;10632;51.276;7.116;2024-02-26T09:01:01;4.30;99.90
20946;DHT22;10632;51.276;7.116;2024-02-26T09:03:28;4.30;99.90
20946;DHT22;10632;51.276;7.116;2024-02-26T09:05:54;4.40;99.90
20946;DHT22;10632;51.276;7.116;2024-02-26T09:08:22;4.40;99.90
20946;DHT22;10632;51.276;7.116;2024-02-26T09:10:50;4.40;99.90
20946;DHT22;10632;51.276;7.116;2024-02-26T09:13:17;4.40;99.90
20946;DHT22;10632;51.276;7.116;2024-02-26T09:15:45;4.40;99.90
20946;DHT22;10632;51.276;7.116;2024-02-26T09:18:12;4.50;99.90
20946;DHT22;10632;51.276;7.116;2024-02-26T09:20:41;4.50;99.90
20946;DHT22;10632;51.276;7.116;2024-02-26T09:23:10;4.50;99.90
20946;DHT22;10632;51.276;7.116;2024-02-26T09:25:37;4.50;99.90
20946;DHT22;10632;51.276;7.116;2024-02-26T09:28:04;4.50;99.90
20946;DHT22;10632;51.276;7.116;2024-02-26T09:30:31;4.50;99.90
20946;DHT22;10632;51.276;7.116;2024-02-26T09:32:59;4.50;99.90
20946;DHT22;10632;51.276;7.116;2024-02-26T09:35:26;4.60;99.90
20946;DHT22;10632;51.276;7.116;2024-02-26T09:37:53;4.50;99.90
20946;DHT22;10632;51.276;7.116;2024-02-26T09:40:20;4.60;99.90
20946;DHT22;10632;51.276;7.116;2024-02-26T09:42:47;4.60;99.90
20946;DHT22;10632;51.276;7.116;2024-02-26T09:45:18;4.60;99.90
20946;DHT22;10632;51.276;7.116;2024-02-26T09:47:48;4.70;99.90
20946;DHT22;10632;51.276;7.116;2024-02-26T09:50:17;4.70;99.90
20946;DHT22;10632;51.276;7.116;2024-02-26T09:52:48;4.70;99.90
20946;DHT22;10632;51.276;7.116;2024-02-26T09:55:15;4.70;99.90
20946;DHT22;10632;51.276;7.116;2024-02-26T09:57:45;4.70;99.90
20946;DHT22;10632;51.276;7.116;2024-02-26T10:00:17;4.70;99.90
20946;DHT22;10632;51.276;7.116;2024-02-26T10:02:45;4.70;99.90
20946;DHT22;10632;51.276;7.116;2024-02-26T10:05:16;4.80;99.90
20946;DHT22;10632;51.276;7.116;2024-02-26T10:07:44;4.80;99.90
20946;DHT22;10632;51.276;7.116;2024-02-26T10:10:11;4.90;99.90
20946;DHT22;10632;51.276;7.116;2024-02-26T10:12:39;4.90;99.90
20946;DHT22;10632;51.276;7.116;2024-02-26T10:15:07;4.90;99.90
20946;DHT22;10632;51.276;7.116;2024-02-26T10:17:34;5.00;99.90
20946;DHT22;10632;51.276;7.116;2024-02-26T10:20:24;5.00;99.90
20946;DHT22;10632;51.276;7.116;2024-02-26T10:22:51;5.00;99.90
20946;DHT22;10632;51.276;7.116;2024-02-26T10:25:18;5.00;99.90
20946;DHT22;10632;51.276;7.116;2024-02-26T10:27:46;5.10;99.90
20946;DHT22;10632;51.276;7.116;2024-02-26T10:30:18;5.00;99.90
20946;DHT22;10632;51.276;7.116;2024-02-26T10:32:46;5.10;99.90
20946;DHT22;10632;51.276;7.116;2024-02-26T10:35:14;5.10;99.90
20946;DHT22;10632;51.276;7.116;2024-02-26T10:37:42;5.00;99.90
20946;DHT22;10632;51.276;7.116;2024-02-26T10:40:10;5.00;99.90
20946;DHT22;10632;51.276;7.116;2024-02-26T10:42:37;4.90;99.90
20946;DHT22;10632;51.276;7.116;2024-02-26T10:45:05;4.90;99.90
20946;DHT22;10632;51.276;7.116;2024-02-26T10:47:33;4.90;99.90
20946;DHT22;10632;51.276;7.116;2024-02-26T10:50:02;4.90;99.90
20946;DHT22;10632;51.276;7.116;2024-02-26T10:52:31;4.90;99.90
20946;DHT22;10632;51.276;7.116;2024-02-26T10:55:02;4.90;99.90
20946;DHT22;10632;51.276;7.116;2024-02-26T10:57:33;5.00;99.90
20946;DHT22;10632;51.276;7.116;2024-02-26T11:00:06;4.90;99.90
20946;DHT22;10632;51.276;7.116;2024-02-26T11:02:36;5.00;99.90
20946;DHT22;10632;51.276;7.116;2024-02-26T11:05:03;5.00;99.90
20946;DHT22;10632;51.276;7.116;2024-02-26T11:07:31;5.00;99.90
20946;DHT22;10632;51.276;7.116;2024-02-26T11:10:01;5.00;99.90
20946;DHT22;10632;51.276;7.116;2024-02-26T11:12:31;5.10;99.90
20946;DHT22;10632;51.276;7.116;2024-02-26T11:14:59;5.20;99.90
20946;DHT22;10632;51.276;7.116;2024-02-26T11:17:28;5.20;99.90
20946;DHT22;10632;51.276;7.116;2024-02-26T11:19:58;5.20;99.90
20946;DHT22;10632;51.276;7.116;2024-02-26T11:22:25;5.20;99.90
20946;DHT22;10632;51.276;7.116;2024-02-26T11:24:53;5.20;99.90
20946;DHT22;10632;51.276;7.116;2024-02-26T11:27:28;5.20;99.90
20946;DHT22;10632;51.276;7.116;2024-02-26T11:29:57;5.30;99.90
20946;DHT22;10632;51.276;7.116;2024-02-26T11:32:26;5.40;99.90
20946;DHT22;10632;51.276;7.116;2024-02-26T11:34:55;5.60;99.90
20946;DHT22;10632;51.276;7.116;2024-02-26T11:37:23;5.70;99.90
20946;DHT22;10632;51.276;7.116;2024-02-26T11:39:51;5.60;99.90
20946;DHT22;10632;51.276;7.116;2024-02-26T11:42:24;5.60;99.90
20946;DHT22;10632;51.276;7.116;2024-02-26T11:44:51;5.50;99.90
20946;DHT22;10632;51.276;7.116;2024-02-26T11:47:20;5.40;99.90
20946;DHT22;10632;51.276;7.116;2024-02-26T11:49:47;5.40;99.90
20946;DHT22;10632;51.276;7.116;2024-02-26T11:52:15;5.40;99.90
20946;DHT22;10632;51.276;7.116;2024-02-26T11:54:47;5.30;99.90
20946;DHT22;10632;51.276;7.116;2024-02-26T11:57:24;5.30;99.90
20946;DHT22;10632;51.276;7.116;2024-02-26T11:59:51;5.30;99.90
20946;DHT22;10632;51.276;7.116;2024-02-26T12:02:40;5.40;99.90
20946;DHT22;10632;51.276;7.116;2024-02-26T12:05:10;5.40;99.90
20946;DHT22;10632;51.276;7.116;2024-02-26T12:07:46;5.40;99.90
20946;DHT22;10632;51.276;7.116;2024-02-26T12:10:21;5.40;99.90
20946;DHT22;10632;51.276;7.116;2024-02-26T12:12:53;5.40;99.90
20946;DHT22;10632;51.276;7.116;2024-02-26T12:15:22;5.40;99.90
20946;DHT22;10632;51.276;7.116;2024-02-26T12:17:49;5.40;99.90
20946;DHT22;10632;51.276;7.116;2024-02-26T12:20:18;5.50;99.90
20946;DHT22;10632;51.276;7.116;2024-02-26T12:22:46;5.50;99.90
20946;DHT22;10632;51.276;7.116;2024-02-26T12:25:14;5.50;99.90
20946;DHT22;10632;51.276;7.116;2024-02-26T12:27:40;5.50;99.90
20946;DHT22;10632;51.276;7.116;2024-02-26T12:30:10;5.50;99.90
20946;DHT22;10632;51.276;7.116;2024-02-26T12:32:40;5.50;99.90
20946;DHT22;10632;51.276;7.116;2024-02-26T12:35:07;5.70;99.90
20946;DHT22;10632;51.276;7.116;2024-02-26T12:37:34;5.60;99.90
20946;DHT22;10632;51.276;7.116;2024-02-26T12:40:04;5.60;99.90
20946;DHT22;10632;51.276;7.116;2024-02-26T12:42:33;5.60;99.90
20946;DHT22;10632;51.276;7.116;2024-02-26T12:45:05;5.60;99.90
20946;DHT22;10632;51.276;7.116;2024-02-26T12:47:37;5.60;99.90
20946;DHT22;10632;51.276;7.116;2024-02-26T12:50:04;5.60;99.90
20946;DHT22;10632;51.276;7.116;2024-02-26T12:52:31;5.60;99.90
20946;DHT22;10632;51.276;7.116;2024-02-26T12:54:59;5.70;99.90
20946;DHT22;10632;51.276;7.116;2024-02-26T12:57:26;5.80;99.90
20946;DHT22;10632;51.276;7.116;2024-02-26T12:59:55;5.90;99.90
20946;DHT22;10632;51.276;7.116;2024-02-26T13:02:23;6.00;99.90
20946;DHT22;10632;51.276;7.116;2024-02-26T13:04:51;6.00;99.90
20946;DHT22;10632;51.276;7.116;2024-02-26T13:07:18;6.00;99.90
20946;DHT22;10632;51.276;7.116;2024-02-26T13:09:46;6.10;99.90
20946;DHT22;10632;51.276;7.116;2024-02-26T13:12:13;6.10;99.90
20946;DHT22;10632;51.276;7.116;2024-02-26T13:14:42;6.10;99.90
20946;DHT22;10632;51.276;7.116;2024-02-26T13:17:12;6.10;99.90
20946;DHT22;10632;51.276;7.116;2024-02-26T13:19:50;6.10;99.90
20946;DHT22;10632;51.276;7.116;2024-02-26T13:22:21;6.20;99.90
20946;DHT22;10632;51.276;7.116;2024-02-26T13:24:53;6.20;99.90
20946;DHT22;10632;51.276;7.116;2024-02-26T13:27:22;6.30;99.90
20946;DHT22;10632;51.276;7.116;2024-02-26T13:29:49;6.30;99.90
20946;DHT22;10632;51.276;7.116;2024-02-26T13:32:16;6.30;99.90
20946;DHT22;10632;51.276;7.116;2024-02-26T13:34:42;6.40;99.90
20946;DHT22;10632;51.276;7.116;2024-02-26T13:37:11;6.40;99.90
20946;DHT22;10632;51.276;7.116;2024-02-26T13:39:38;6.40;99.90
20946;DHT22;10632;51.276;7.116;2024-02-26T13:42:07;6.50;99.90
20946;DHT22;10632;51.276;7.116;2024-02-26T13:44:37;6.50;99.90
20946;DHT22;10632;51.276;7.116;2024-02-26T13:47:06;6.60;99.90
20946;DHT22;10632;51.276;7.116;2024-02-26T13:49:33;6.60;99.90
20946;DHT22;10632;51.276;7.116;2024-02-26T13:52:00;6.60;99.90
20946;DHT22;10632;51.276;7.116;2024-02-26T13:54:28;6.70;99.90
20946;DHT22;10632;51.276;7.116;2024-02-26T13:56:55;6.70;99.90
20946;DHT22;10632;51.276;7.116;2024-02-26T13:59:22;6.80;99.90
20946;DHT22;10632;51.276;7.116;2024-02-26T14:01:48;7.00;99.90
20946;DHT22;10632;51.276;7.116;2024-02-26T14:04:16;7.00;99.90
20946;DHT22;10632;51.276;7.116;2024-02-26T14:06:43;7.00;99.90
20946;DHT22;10632;51.276;7.116;2024-02-26T14:09:10;6.90;99.90
20946;DHT22;10632;51.276;7.116;2024-02-26T14:11:38;6.80;99.90
20946;DHT22;10632;51.276;7.116;2024-02-26T14:14:06;6.70;99.90
20946;DHT22;10632;51.276;7.116;2024-02-26T14:16:33;6.70;99.90
20946;DHT22;10632;51.276;7.116;2024-02-26T14:19:00;6.70;99.90
20946;DHT22;10632;51.276;7.116;2024-02-26T14:21:29;6.60;99.90
20946;DHT22;10632;51.276;7.116;2024-02-26T14:23:56;6.60;99.90
20946;DHT22;10632;51.276;7.116;2024-02-26T14:26:26;6.60;99.90
20946;DHT22;10632;51.276;7.116;2024-02-26T14:28:55;6.60;99.90
20946;DHT22;10632;51.276;7.116;2024-02-26T14:31:22;6.60;99.90
20946;DHT22;10632;51.276;7.116;2024-02-26T14:33:52;6.70;99.90
20946;DHT22;10632;51.276;7.116;2024-02-26T14:36:20;6.70;99.90
20946;DHT22;10632;51.276;7.116;2024-02-26T14:38:47;6.70;99.90
20946;DHT22;10632;51.276;7.116;2024-02-26T14:41:14;6.70;99.90
20946;DHT22;10632;51.276;7.116;2024-02-26T14:43:41;6.80;99.90
20946;DHT22;10632;51.276;7.116;2024-02-26T14:46:10;6.80;99.90
20946;DHT22;10632;51.276;7.116;2024-02-26T14:48:37;6.80;99.90
20946;DHT22;10632;51.276;7.116;2024-02-26T14:51:05;6.70;99.90
20946;DHT22;10632;51.276;7.116;2024-02-26T14:53:32;6.70;99.90
20946;DHT22;10632;51.276;7.116;2024-02-26T14:55:59;6.70;99.90
20946;DHT22;10632;51.276;7.116;2024-02-26T14:58:26;6.60;99.90
20946;DHT22;10632;51.276;7.116;2024-02-26T15:00:53;6.60;99.90
20946;DHT22;10632;51.276;7.116;2024-02-26T15:03:24;6.60;99.90
20946;DHT22;10632;51.276;7.116;2024-02-26T15:05:51;6.70;99.90
20946;DHT22;10632;51.276;7.116;2024-02-26T15:08:18;6.70;99.90
20946;DHT22;10632;51.276;7.116;2024-02-26T15:10:45;6.70;99.90
20946;DHT22;10632;51.276;7.116;2024-02-26T15:13:13;6.70;99.90
20946;DHT22;10632;51.276;7.116;2024-02-26T15:15:41;6.70;99.90
20946;DHT22;10632;51.276;7.116;2024-02-26T15:18:08;6.60;99.90
20946;DHT22;10632;51.276;7.116;2024-02-26T15:20:38;6.60;99.90
20946;DHT22;10632;51.276;7.116;2024-02-26T15:23:05;6.60;99.90
20946;DHT22;10632;51.276;7.116;2024-02-26T15:25:32;6.60;99.90
20946;DHT22;10632;51.276;7.116;2024-02-26T15:28:02;6.60;99.90
20946;DHT22;10632;51.276;7.116;2024-02-26T15:30:29;6.50;99.90
20946;DHT22;10632;51.276;7.116;2024-02-26T15:32:58;6.50;99.90
20946;DHT22;10632;51.276;7.116;2024-02-26T15:35:25;6.50;99.90
20946;DHT22;10632;51.276;7.116;2024-02-26T15:37:54;6.50;99.90
20946;DHT22;10632;51.276;7.116;2024-02-26T15:40:20;6.50;99.90
20946;DHT22;10632;51.276;7.116;2024-02-26T15:42:48;6.50;99.90
20946;DHT22;10632;51.276;7.116;2024-02-26T15:45:15;6.50;99.90
20946;DHT22;10632;51.276;7.116;2024-02-26T15:47:42;6.50;99.90
20946;DHT22;10632;51.276;7.116;2024-02-26T15:50:09;6.40;99.90